CA-0428 weather

Elbow Airstrip
Elbow, Saskatchewan, Canada

Public forecast

Using degrees Celsius for public forecast. Weather courtesy of forecast.io.

METAR (pilot weather report)

Report is more than 2 hours old.

Closest report is Moose Jaw Air Vice Marshal C. M. McEwen Airport, 62.1 nm (115.0 km) SE. Retrieved 2019/04/25 21:48 UTC (4 hours ago):

CYMJ 252148Z 31022G34KT 15SM FEW080 12/M16 A3014 RMK CU1 LAST OBS/NEXT 261000 UTC SLP223

TAF (pilot weather forecast)

Forecast is more than 6 hours old.

Closest forecast is Moose Jaw Air Vice Marshal C. M. McEwen Airport, 62.1 nm (115.0 km) SE. Retrieved 2019/04/25 18:33 UTC (7 hours ago):

TAF CYMJ 251730Z 2518/2606 31028G38KT P6SM FEW050 BECMG 2522/2524 31018G28KT BECMG 2603/2605 27008KT RMK NXT FCST BY 260000Z